createdAt,value
2018-09-09T00:02:14.220Z,101562.19
2018-09-09T00:04:43.493Z,101569.29
2018-09-09T00:07:12.806Z,101570.19
2018-09-09T00:09:48.263Z,101576.37
2018-09-09T00:12:17.908Z,101569.28
2018-09-09T00:14:47.436Z,101568.42
2018-09-09T00:17:17.261Z,101563.16
2018-09-09T00:19:46.389Z,101568.48
2018-09-09T00:22:15.748Z,101566.77
2018-09-09T00:24:45.162Z,101568.55
2018-09-09T00:27:14.360Z,101567.62
2018-09-09T00:29:43.558Z,101571.57
2018-09-09T00:32:12.999Z,101565.84
2018-09-09T00:34:42.228Z,101562.35
2018-09-09T00:37:11.460Z,101567.64
2018-09-09T00:39:40.893Z,101567.63
2018-09-09T00:42:09.937Z,101557.05
2018-09-09T00:44:39.158Z,101559.29
2018-09-09T00:47:08.528Z,101552.60
2018-09-09T00:49:42.983Z,101555.72
2018-09-09T00:52:17.348Z,101565.06
2018-09-09T00:54:46.951Z,101562.45
2018-09-09T00:57:16.189Z,101568.17
2018-09-09T00:59:45.390Z,101567.73
2018-09-09T01:02:14.936Z,101559.32
2018-09-09T01:04:44.482Z,101559.77
2018-09-09T01:07:13.620Z,101560.64
2018-09-09T01:09:43.246Z,101563.75
2018-09-09T01:12:12.565Z,101560.69
2018-09-09T01:14:41.767Z,101560.69
2018-09-09T01:17:11.291Z,101565.08
2018-09-09T01:19:40.739Z,101558.45
2018-09-09T01:22:10.205Z,101564.19
2018-09-09T01:24:39.786Z,101561.54
2018-09-09T01:27:09.186Z,101558.91
2018-09-09T01:29:38.489Z,101555.34
2018-09-09T01:32:08.172Z,101564.20
2018-09-09T01:34:37.181Z,101560.23
2018-09-09T01:37:06.445Z,101554.12
2018-09-09T01:39:36.042Z,101555.42
2018-09-09T01:42:05.166Z,101559.78
2018-09-09T01:44:34.453Z,101556.20
2018-09-09T01:47:03.865Z,101553.56
2018-09-09T01:49:33.127Z,101543.41
2018-09-09T01:52:02.637Z,101545.66
2018-09-09T01:54:32.426Z,101539.00
2018-09-09T01:57:01.522Z,101535.94
2018-09-09T01:59:30.893Z,101549.17
2018-09-09T02:02:00.527Z,101553.11
2018-09-09T02:04:29.621Z,101464.28
2018-09-09T02:06:59.007Z,101523.62
2018-09-09T02:09:28.621Z,101538.09
2018-09-09T02:11:58.235Z,101537.64
2018-09-09T02:14:27.709Z,101536.70
2018-09-09T02:16:56.948Z,101540.27
2018-09-09T02:19:26.112Z,101538.52
2018-09-09T02:21:55.500Z,101542.97
2018-09-09T02:24:25.055Z,101542.97
2018-09-09T02:26:54.477Z,101518.83
2018-09-09T02:29:23.853Z,101541.22
2018-09-09T02:31:53.180Z,101541.17
2018-09-09T02:34:22.235Z,101541.15
2018-09-09T02:36:51.452Z,101527.92
2018-09-09T02:39:21.457Z,101530.98
2018-09-09T02:41:50.639Z,101544.63
2018-09-09T02:44:19.863Z,101538.37
2018-09-09T02:46:49.441Z,101541.87
2018-09-09T02:49:18.439Z,101537.86
2018-09-09T02:51:47.837Z,101545.84
2018-09-09T02:54:17.235Z,101544.91
2018-09-09T02:56:46.484Z,101544.48
2018-09-09T02:59:15.603Z,101540.95
2018-09-09T03:01:45.059Z,101542.66
2018-09-09T03:04:15.448Z,101538.25
2018-09-09T03:06:44.677Z,101536.45
2018-09-09T03:09:14.313Z,101529.86
2018-09-09T03:11:43.538Z,101543.11
2018-09-09T03:14:12.696Z,101533.81
2018-09-09T03:16:42.208Z,101528.47
2018-09-09T03:19:11.513Z,101532.00
2018-09-09T03:21:41.102Z,101522.23
2018-09-09T03:24:10.645Z,101527.53
2018-09-09T03:26:39.627Z,101526.66
2018-09-09T03:29:08.792Z,101523.53
2018-09-09T03:31:38.233Z,101520.88
2018-09-09T03:34:07.503Z,101517.77
2018-09-09T03:36:36.713Z,101515.97
2018-09-09T03:39:08.247Z,101526.13
2018-09-09T03:41:37.879Z,101533.64
2018-09-09T03:44:07.082Z,101540.73
2018-09-09T03:46:36.778Z,101547.83
2018-09-09T03:49:06.269Z,101543.80
2018-09-09T03:51:35.564Z,101539.80
2018-09-09T03:54:05.272Z,101540.66
2018-09-09T03:56:34.793Z,101541.55
2018-09-09T03:59:04.341Z,101532.77
2018-09-09T04:01:33.579Z,101539.80
2018-09-09T04:04:02.813Z,101534.95
2018-09-09T04:06:32.175Z,101533.56
2018-09-09T04:09:01.792Z,101537.05
2018-09-09T04:11:31.138Z,101525.56
2018-09-09T04:14:00.715Z,101528.19
2018-09-09T04:16:30.110Z,101532.13
2018-09-09T04:18:59.608Z,101533.02
2018-09-09T04:21:28.918Z,101530.78
2018-09-09T04:23:58.458Z,101534.29
2018-09-09T04:26:28.095Z,101532.94
2018-09-09T04:28:57.218Z,101538.66
2018-09-09T04:31:26.754Z,101574.03
2018-09-09T04:33:56.447Z,101563.55
2018-09-09T04:36:25.882Z,101560.06
2018-09-09T04:38:55.289Z,101559.27
2018-09-09T04:41:24.559Z,101550.91
2018-09-09T04:43:54.141Z,101556.66
2018-09-09T04:46:23.551Z,101556.66
2018-09-09T04:48:52.803Z,101556.61
2018-09-09T04:51:22.870Z,101545.59
2018-09-09T04:53:52.369Z,101553.10
2018-09-09T04:56:22.050Z,101549.59
2018-09-09T04:58:51.624Z,101551.36
2018-09-09T05:01:20.960Z,101553.08
2018-09-09T05:03:50.313Z,101555.72
2018-09-09T05:06:19.472Z,101556.17
2018-09-09T05:08:48.873Z,101553.05
2018-09-09T05:11:18.134Z,101551.31
2018-09-09T05:13:47.326Z,101563.67
2018-09-09T05:16:17.075Z,101555.72
2018-09-09T05:18:46.446Z,101552.22
2018-09-09T05:21:15.656Z,101561.02
2018-09-09T05:23:45.172Z,101561.91
2018-09-09T05:26:14.980Z,101562.80
2018-09-09T05:28:44.351Z,101558.82
2018-09-09T05:31:14.156Z,101563.24
2018-09-09T05:33:43.471Z,101564.52
2018-09-09T05:36:12.729Z,101560.12
2018-09-09T05:38:42.172Z,101567.23
2018-09-09T05:41:11.468Z,101564.56
2018-09-09T05:43:40.547Z,101568.49
2018-09-09T05:46:10.051Z,101564.95
2018-09-09T05:48:39.425Z,101577.77
2018-09-09T05:51:08.743Z,101585.69
2018-09-09T05:53:38.177Z,101582.19
2018-09-09T05:56:07.322Z,101579.45
2018-09-09T05:58:36.628Z,101591.83
2018-09-09T06:01:06.565Z,101590.51
2018-09-09T06:03:35.703Z,101594.45
2018-09-09T06:06:05.173Z,101589.16
2018-09-09T06:08:34.982Z,101585.59
2018-09-09T06:11:04.561Z,101586.92
2018-09-09T06:13:34.018Z,101589.16
2018-09-09T06:16:03.604Z,101597.13
2018-09-09T06:21:24.429Z,101593.64
2018-09-09T06:29:39.495Z,101595.92
2018-09-09T06:38:06.926Z,101585.77
2018-09-09T06:40:36.258Z,101587.95
2018-09-09T06:46:16.209Z,101583.04
2018-09-09T06:48:45.565Z,101583.48
2018-09-09T06:51:14.918Z,101582.16
2018-09-09T06:53:44.417Z,101582.16
2018-09-09T06:56:13.773Z,101589.63
2018-09-09T06:58:43.067Z,101584.76
2018-09-09T07:01:12.576Z,101589.20
2018-09-09T07:03:42.829Z,101581.23
2018-09-09T07:06:12.269Z,101578.12
2018-09-09T07:08:41.743Z,101587.83
2018-09-09T07:11:11.406Z,101574.11
2018-09-09T07:13:40.514Z,101578.06
2018-09-09T07:16:09.802Z,101578.45
2018-09-09T07:18:39.277Z,101571.35
2018-09-09T07:21:08.505Z,101571.35
2018-09-09T07:23:37.757Z,101577.55
2018-09-09T07:26:07.295Z,101572.19
2018-09-09T07:28:36.695Z,101578.41
2018-09-09T07:31:06.112Z,101575.70
2018-09-09T07:33:35.830Z,101576.17
2018-09-09T07:36:05.396Z,101567.79
2018-09-09T07:38:34.857Z,101559.89
2018-09-09T07:41:04.295Z,101566.02
2018-09-09T07:43:33.725Z,101566.02
2018-09-09T07:46:03.028Z,101567.81
2018-09-09T07:48:32.410Z,101562.54
2018-09-09T07:51:01.970Z,101574.94
2018-09-09T07:53:31.404Z,101570.59
2018-09-09T07:56:01.190Z,101590.12
2018-09-09T07:58:30.565Z,101581.30
2018-09-09T08:00:59.805Z,101573.33
2018-09-09T08:03:29.544Z,101582.99
2018-09-09T08:05:59.847Z,101579.44
2018-09-09T08:08:29.062Z,101575.80
2018-09-09T08:10:58.462Z,101587.68
2018-09-09T08:13:27.693Z,101582.77
2018-09-09T08:15:57.275Z,101587.99
2018-09-09T08:18:26.925Z,101583.55
2018-09-09T08:20:56.328Z,101585.27
2018-09-09T08:23:25.742Z,101588.80
2018-09-09T08:25:55.428Z,101585.20
2018-09-09T08:28:24.550Z,101595.34
2018-09-09T08:30:53.880Z,101601.09
2018-09-09T08:33:23.561Z,101601.98
2018-09-09T08:35:52.712Z,101607.22
2018-09-09T08:38:21.926Z,101604.98
2018-09-09T08:40:51.351Z,101600.09
2018-09-09T08:43:21.676Z,101606.25
2018-09-09T08:45:51.142Z,101601.83
2018-09-09T08:51:00.844Z,101601.73
2018-09-09T08:53:30.172Z,101607.87
2018-09-09T08:55:59.484Z,101610.96
2018-09-09T08:58:28.984Z,101607.84
2018-09-09T09:00:58.220Z,101601.14
2018-09-09T09:03:27.620Z,101606.80
2018-09-09T09:05:57.690Z,101603.63
2018-09-09T09:08:26.984Z,101607.55
2018-09-09T09:10:56.387Z,101604.72
2018-09-09T09:13:25.821Z,101620.55
2018-09-09T09:15:55.065Z,101613.40
2018-09-09T09:18:24.466Z,101613.88
2018-09-09T09:20:53.746Z,101617.79
2018-09-09T09:23:23.360Z,101623.98
2018-09-09T09:25:53.708Z,101623.95
2018-09-09T09:28:24.513Z,101624.39
2018-09-09T09:30:54.220Z,101626.16
2018-09-09T09:33:23.737Z,101623.91
2018-09-09T09:35:54.315Z,101630.11
2018-09-09T09:38:24.743Z,101636.75
2018-09-09T09:40:54.064Z,101631.84
2018-09-09T09:43:23.336Z,101636.20
2018-09-09T09:45:52.640Z,101629.52
2018-09-09T09:48:22.017Z,101630.81
2018-09-09T09:50:51.631Z,101628.52
2018-09-09T09:53:20.923Z,101635.12
2018-09-09T09:55:50.511Z,101636.83
2018-09-09T09:58:19.758Z,101632.23
2018-09-09T10:00:54.084Z,101631.67
2018-09-09T10:03:23.519Z,101639.92
2018-09-09T10:05:52.792Z,101635.41
2018-09-09T10:08:22.287Z,101642.51
2018-09-09T10:10:51.847Z,101635.45
2018-09-09T10:13:21.254Z,101641.18
2018-09-09T10:15:50.343Z,101641.18
2018-09-09T10:18:19.527Z,101639.08
2018-09-09T10:20:48.761Z,101646.17
2018-09-09T10:23:18.224Z,101646.13
2018-09-09T10:25:47.569Z,101645.28
2018-09-09T10:28:16.787Z,101643.11
2018-09-09T10:30:46.226Z,101644.05
2018-09-09T10:33:15.521Z,101650.65
2018-09-09T10:35:44.823Z,101646.70
2018-09-09T10:38:14.175Z,101649.84
2018-09-09T10:40:43.299Z,101652.54
2018-09-09T10:43:12.887Z,101656.48
2018-09-09T10:45:42.069Z,101662.69
2018-09-09T10:48:11.425Z,101667.59
2018-09-09T10:50:40.580Z,101665.79
2018-09-09T10:53:09.882Z,101663.09
2018-09-09T10:55:39.276Z,101665.75
2018-09-09T10:58:08.693Z,101654.59
2018-09-09T11:00:38.132Z,101655.80
2018-09-09T11:03:07.626Z,101656.61
2018-09-09T11:05:37.247Z,101659.14
2018-09-09T11:08:06.653Z,101662.55
2018-09-09T11:10:36.085Z,101666.06
2018-09-09T11:13:05.538Z,101672.49
2018-09-09T11:15:34.787Z,101666.63
2018-09-09T11:18:04.772Z,101673.67
2018-09-09T11:20:34.051Z,101663.04
2018-09-09T11:23:03.383Z,101663.09
2018-09-09T11:25:32.536Z,101671.55
2018-09-09T11:28:02.052Z,101670.23
2018-09-09T11:30:31.420Z,101679.15
2018-09-09T11:33:00.996Z,101672.09
2018-09-09T11:35:30.614Z,101676.48
2018-09-09T11:37:59.935Z,101683.63
2018-09-09T11:40:29.281Z,101683.66
2018-09-09T11:42:58.626Z,101647.70
2018-09-09T11:45:27.833Z,101684.55
2018-09-09T11:47:57.256Z,101688.14
2018-09-09T11:50:26.564Z,101697.01
2018-09-09T11:52:55.955Z,101696.64
2018-09-09T11:55:25.530Z,101690.52
2018-09-09T11:57:55.154Z,101695.84
2018-09-09T12:00:24.559Z,101693.66
2018-09-09T12:02:53.809Z,101696.33
2018-09-09T12:05:23.131Z,101699.03
2018-09-09T12:07:52.774Z,101700.00
2018-09-09T12:10:21.972Z,101700.88
2018-09-09T12:12:51.581Z,101696.94
2018-09-09T12:15:20.851Z,101704.55
2018-09-09T12:17:50.514Z,101713.04
2018-09-09T12:20:20.086Z,101709.09
2018-09-09T12:22:49.348Z,101707.24
2018-09-09T12:25:19.314Z,101714.73
2018-09-09T12:27:48.798Z,101711.64
2018-09-09T12:30:18.270Z,101718.69
2018-09-09T12:32:47.875Z,101720.42
2018-09-09T12:35:17.384Z,101730.13
2018-09-09T12:37:46.790Z,101722.08
2018-09-09T12:40:16.646Z,101721.91
2018-09-09T12:42:49.533Z,101719.62
2018-09-09T12:45:23.984Z,101721.80
2018-09-09T12:47:58.304Z,101724.85
2018-09-09T12:50:28.002Z,101720.91
2018-09-09T12:52:57.477Z,101718.66
2018-09-09T12:55:27.312Z,101718.25
2018-09-09T12:57:56.949Z,101720.47
2018-09-09T13:00:26.276Z,101722.80
2018-09-09T13:02:55.653Z,101719.78
2018-09-09T13:05:25.121Z,101724.09
2018-09-09T13:07:54.734Z,101731.11
2018-09-09T13:10:24.474Z,101735.05
2018-09-09T13:12:58.835Z,101727.96
2018-09-09T13:15:27.989Z,101724.78
2018-09-09T13:17:57.431Z,101723.39
2018-09-09T13:20:26.906Z,101729.15
2018-09-09T13:22:56.245Z,101734.03
2018-09-09T13:25:25.707Z,101729.08
2018-09-09T13:27:54.948Z,101729.47
2018-09-09T13:30:24.142Z,101724.55
2018-09-09T13:32:53.300Z,101733.87
2018-09-09T13:35:22.720Z,101726.85
2018-09-09T13:37:51.920Z,101731.38
2018-09-09T13:40:21.297Z,101728.71
2018-09-09T13:42:50.899Z,101736.69
2018-09-09T13:45:20.194Z,101731.33
2018-09-09T13:47:49.456Z,101732.13
2018-09-09T13:50:18.579Z,101724.98
2018-09-09T13:52:47.691Z,101724.95
2018-09-09T13:55:17.076Z,101732.09
2018-09-09T13:57:46.540Z,101728.58
2018-09-09T14:00:16.188Z,101726.00
2018-09-09T14:02:45.544Z,101735.73
2018-09-09T14:05:14.912Z,101731.86
2018-09-09T14:07:43.990Z,101738.51
2018-09-09T14:10:13.437Z,101739.27
2018-09-09T14:12:42.756Z,101738.47
2018-09-09T14:15:12.065Z,101742.91
2018-09-09T14:17:41.273Z,101751.38
2018-09-09T14:20:10.704Z,101753.63
2018-09-09T14:22:40.236Z,101751.13
2018-09-09T14:25:09.722Z,101746.74
2018-09-09T14:27:39.282Z,101745.94
2018-09-09T14:30:08.472Z,101749.45
2018-09-09T14:32:37.997Z,101753.39
2018-09-09T14:35:07.487Z,101748.47
2018-09-09T14:37:36.735Z,101746.73
2018-09-09T14:40:06.138Z,101744.93
2018-09-09T14:42:36.830Z,101740.49
2018-09-09T14:45:06.729Z,101751.53
2018-09-09T14:47:36.176Z,101751.05
2018-09-09T14:50:05.611Z,101751.13
2018-09-09T14:52:34.900Z,101745.81
2018-09-09T14:55:05.112Z,101742.55
2018-09-09T14:57:34.502Z,101742.95
2018-09-09T15:00:04.315Z,101741.97
2018-09-09T15:02:34.235Z,101744.19
2018-09-09T15:05:03.542Z,101736.74
2018-09-09T15:07:33.027Z,101748.80
2018-09-09T15:10:01.927Z,101768.75
2018-09-09T15:12:31.259Z,101766.58
2018-09-09T15:15:00.618Z,101769.75
2018-09-09T15:17:29.645Z,101768.83
2018-09-09T15:19:58.850Z,101770.60
2018-09-09T15:22:28.222Z,101775.03
2018-09-09T15:24:57.504Z,101777.30
2018-09-09T15:27:26.665Z,101781.28
2018-09-09T15:29:55.991Z,101782.13
2018-09-09T15:32:25.328Z,101776.41
2018-09-09T15:34:54.759Z,101778.63
2018-09-09T15:37:24.221Z,101773.30
2018-09-09T15:39:53.550Z,101774.19
2018-09-09T15:42:23.130Z,101772.86
2018-09-09T15:44:52.129Z,101771.53
2018-09-09T15:47:21.141Z,101761.30
2018-09-09T15:49:50.832Z,101760.69
2018-09-09T15:52:19.970Z,101767.78
2018-09-09T15:54:49.225Z,101759.80
2018-09-09T15:57:18.602Z,101763.30
2018-09-09T15:59:48.025Z,101754.35
2018-09-09T16:02:17.457Z,101764.06
2018-09-09T16:04:46.774Z,101771.61
2018-09-09T16:07:16.319Z,101764.91
2018-09-09T16:09:45.702Z,101761.36
2018-09-09T16:12:15.095Z,101756.92
2018-09-09T16:14:44.519Z,101754.75
2018-09-09T16:17:13.744Z,101764.06
2018-09-09T16:19:43.404Z,101771.24
2018-09-09T16:22:12.891Z,101766.41
2018-09-09T16:24:42.336Z,101769.51
2018-09-09T16:27:12.340Z,101764.28
2018-09-09T16:29:44.100Z,101770.97
2018-09-09T16:32:14.253Z,101767.98
2018-09-09T16:34:45.578Z,101764.88
2018-09-09T16:37:15.714Z,101762.66
2018-09-09T16:39:45.754Z,101652.03
2018-09-09T16:42:15.754Z,101759.16
2018-09-09T16:44:45.434Z,101760.89
2018-09-09T16:47:15.078Z,101765.32
2018-09-09T16:49:44.831Z,101772.86
2018-09-09T16:52:14.833Z,101768.95
2018-09-09T16:54:44.474Z,101777.81
2018-09-09T16:57:14.118Z,101776.33
2018-09-09T16:59:43.416Z,101776.84
2018-09-09T17:02:12.468Z,101782.24
2018-09-09T17:04:41.934Z,101660.08
2018-09-09T17:07:11.423Z,101781.32
2018-09-09T17:09:40.928Z,101780.44
2018-09-09T17:12:11.712Z,101782.13
2018-09-09T17:14:41.166Z,101783.91
2018-09-09T17:17:10.832Z,101785.75
2018-09-09T17:19:41.174Z,101785.75
2018-09-09T17:22:10.390Z,101779.58
2018-09-09T17:24:39.701Z,101790.63
2018-09-09T17:27:09.000Z,101791.96
2018-09-09T17:29:38.394Z,101782.66
2018-09-09T17:32:07.542Z,101785.75
2018-09-09T17:34:36.715Z,101783.58
2018-09-09T17:37:05.820Z,101782.20
2018-09-09T17:39:34.880Z,101780.03
2018-09-09T17:42:04.186Z,101780.10
2018-09-09T17:44:33.387Z,101781.40
2018-09-09T17:47:02.529Z,101786.68
2018-09-09T17:49:31.832Z,101789.41
2018-09-09T17:52:01.168Z,101772.76
2018-09-09T17:54:30.885Z,101791.19
2018-09-09T17:57:00.683Z,101792.11
2018-09-09T17:59:30.181Z,101793.92
2018-09-09T18:01:59.574Z,101792.63
2018-09-09T18:04:28.976Z,101793.03
2018-09-09T18:06:58.188Z,101790.89
2018-09-09T18:09:27.484Z,101789.63
2018-09-09T18:11:56.869Z,101789.67
2018-09-09T18:14:26.059Z,101798.49
2018-09-09T18:16:56.083Z,101794.95
2018-09-09T18:19:25.697Z,101793.63
2018-09-09T18:21:55.026Z,101795.46
2018-09-09T18:24:24.195Z,101794.65
2018-09-09T18:26:53.308Z,101792.91
2018-09-09T18:29:22.533Z,101796.48
2018-09-09T18:31:51.919Z,101792.05
2018-09-09T18:34:21.247Z,101789.84
2018-09-09T18:36:50.920Z,101800.47
2018-09-09T18:39:20.358Z,101794.30
2018-09-09T18:41:49.597Z,101793.83
2018-09-09T18:44:18.858Z,101794.23
2018-09-09T18:46:48.012Z,101793.83
2018-09-09T18:49:17.533Z,101790.31
2018-09-09T18:51:47.187Z,101792.50
2018-09-09T18:54:16.633Z,101799.63
2018-09-09T18:56:45.969Z,101798.70
2018-09-09T18:59:15.255Z,101800.51
2018-09-09T19:01:44.535Z,101792.56
2018-09-09T19:04:13.878Z,101803.23
2018-09-09T19:06:43.539Z,101806.81
2018-09-09T19:09:14.272Z,101809.50
2018-09-09T19:11:43.975Z,101809.13
2018-09-09T19:14:13.639Z,101807.83
2018-09-09T19:16:43.123Z,101811.84
2018-09-09T19:19:13.024Z,101811.45
2018-09-09T19:21:42.893Z,101811.45
2018-09-09T19:24:13.163Z,101813.27
2018-09-09T19:26:45.085Z,101812.38
2018-09-09T19:29:14.953Z,101813.30
2018-09-09T19:31:44.895Z,101808.86
2018-09-09T19:34:15.459Z,101813.70
2018-09-09T19:36:45.322Z,101809.72
2018-09-09T19:39:14.714Z,101820.82
2018-09-09T19:41:44.482Z,101811.55
2018-09-09T19:44:13.791Z,101809.80
2018-09-09T19:46:42.978Z,101804.52
2018-09-09T19:49:12.090Z,101802.37
2018-09-09T19:51:41.364Z,101801.48
2018-09-09T19:54:10.503Z,101798.38
2018-09-09T19:56:40.211Z,101800.16
2018-09-09T19:59:09.670Z,101801.89
2018-09-09T20:01:40.350Z,101791.27
2018-09-09T20:04:10.258Z,101800.98
2018-09-09T20:06:39.578Z,101802.72
2018-09-09T20:09:09.289Z,101811.14
2018-09-09T20:11:38.765Z,101802.31
2018-09-09T20:14:08.577Z,101800.16
2018-09-09T20:16:38.987Z,101805.47
2018-09-09T20:19:08.772Z,101794.40
2018-09-09T20:21:38.192Z,101794.84
2018-09-09T20:24:08.364Z,101797.50
2018-09-09T20:26:38.068Z,101793.92
2018-09-09T20:29:07.381Z,101791.72
2018-09-09T20:31:36.673Z,101788.55
2018-09-09T20:34:05.903Z,101793.87
2018-09-09T20:36:35.562Z,101790.27
2018-09-09T20:39:07.323Z,101787.55
2018-09-09T20:41:36.814Z,101801.72
2018-09-09T20:44:07.094Z,101795.99
2018-09-09T20:46:36.295Z,101788.42
2018-09-09T20:49:07.124Z,101794.63
2018-09-09T20:51:36.589Z,101794.66
2018-09-09T20:54:05.977Z,101789.79
2018-09-09T20:56:35.356Z,101786.69
2018-09-09T20:59:04.734Z,101788.42
2018-09-09T21:01:34.299Z,101785.71
2018-09-09T21:04:03.997Z,101778.59
2018-09-09T21:06:33.392Z,101774.12
2018-09-09T21:09:03.708Z,101772.36
2018-09-09T21:11:34.691Z,101765.20
2018-09-09T21:14:03.765Z,101766.09
2018-09-09T21:16:32.853Z,101760.30
2018-09-09T21:19:02.040Z,101755.87
2018-09-09T21:21:31.330Z,101747.89
2018-09-09T21:24:00.956Z,101753.21
2018-09-09T21:26:30.768Z,101746.94
2018-09-09T21:29:00.488Z,101745.57
2018-09-09T21:31:30.271Z,101753.95
2018-09-09T21:34:03.283Z,101749.12
2018-09-09T21:36:32.590Z,101754.88
2018-09-09T21:39:01.911Z,101753.55
2018-09-09T21:41:31.761Z,101753.11
2018-09-09T21:44:01.569Z,101750.89
2018-09-09T21:46:30.701Z,101755.31
2018-09-09T21:49:00.407Z,101751.81
2018-09-09T21:51:30.114Z,101751.37
2018-09-09T21:53:59.728Z,101745.16
2018-09-09T21:56:29.215Z,101752.22
2018-09-09T21:58:58.843Z,101741.98
2018-09-09T22:05:06.047Z,101741.03
2018-09-09T22:07:35.291Z,101741.00
2018-09-09T22:10:04.838Z,101735.64
2018-09-09T22:12:34.153Z,101739.59
2018-09-09T22:15:03.826Z,101741.77
2018-09-09T22:17:33.023Z,101738.63
2018-09-09T22:20:02.303Z,101740.77
2018-09-09T22:22:32.359Z,101733.67
2018-09-09T22:25:01.501Z,101733.20
2018-09-09T22:27:30.714Z,101741.66
2018-09-09T22:30:00.160Z,101735.86
2018-09-09T22:32:29.772Z,101733.64
2018-09-09T22:34:59.198Z,101734.08
2018-09-09T22:37:28.396Z,101728.28
2018-09-09T22:39:57.758Z,101717.61
2018-09-09T22:42:27.246Z,101714.06
2018-09-09T22:44:56.549Z,101720.70
2018-09-09T22:47:25.644Z,101714.06
2018-09-09T22:49:54.829Z,101710.52
2018-09-09T22:52:24.497Z,101698.98
2018-09-09T22:54:53.774Z,101707.85
2018-09-09T22:57:22.999Z,101702.58
2018-09-09T22:59:52.502Z,101711.92
2018-09-09T23:02:22.541Z,101704.43
2018-09-09T23:04:52.360Z,101706.69
2018-09-09T23:07:21.723Z,101705.39
2018-09-09T23:09:51.495Z,101708.09
2018-09-09T23:12:20.824Z,101706.31
2018-09-09T23:14:50.452Z,101699.27
2018-09-09T23:17:19.936Z,101704.63
2018-09-09T23:19:49.836Z,101703.78
2018-09-09T23:22:19.343Z,101693.22
2018-09-09T23:24:49.134Z,101696.84
2018-09-09T23:27:19.063Z,101695.14
2018-09-09T23:29:49.473Z,101688.05
2018-09-09T23:32:18.621Z,101685.44
2018-09-09T23:34:48.339Z,101680.16
2018-09-09T23:37:18.039Z,101682.84
2018-09-09T23:39:47.294Z,101674.91
2018-09-09T23:42:16.853Z,101679.34
2018-09-09T23:44:46.115Z,101676.76
2018-09-09T23:47:15.274Z,101670.59
2018-09-09T23:49:44.437Z,101669.30
2018-09-09T23:52:14.005Z,101664.47
2018-09-09T23:54:43.582Z,101667.56
2018-09-09T23:57:12.791Z,101665.39
2018-09-09T23:59:46.959Z,101661.84
